Time;durP1;ratioP1;P1;durP2;ratioP2;P2;SDS_P1;SDS_P2;PMS_P1;PMS_P2;Temp;Humidity;BMP_temperature;BMP_pressure;BME280_temperature;BME280_humidity;BME280_pressure;Samples;Min_cycle;Max_cycle;Signal;HPM_P1;HPM_P2
2022/07/09 00:03:55;;;;;;;5.22;2.75;;;;;;;18.83;65.15;100954.16;10436033;28;20514;-74
2022/07/09 00:08:58;;;;;;;4.75;3.17;;;;;;;18.82;65.36;100949.75;10484444;28;20053;-75
2022/07/09 00:14:00;;;;;;;3.83;2.97;;;;;;;18.77;65.21;100941.59;10457422;28;20049;-75
2022/07/09 00:19:03;;;;;;;4.68;2.58;;;;;;;18.70;65.45;100941.25;10472446;28;20040;-75
2022/07/09 00:24:05;;;;;;;6.90;2.60;;;;;;;18.64;65.30;100948.13;10491990;28;20041;-76
2022/07/09 00:29:08;;;;;;;6.13;3.03;;;;;;;18.59;65.38;100928.81;10494447;28;20033;-76
2022/07/09 00:34:11;;;;;;;4.05;2.53;;;;;;;18.50;65.72;100926.03;10482259;28;20040;-76
2022/07/09 00:39:13;;;;;;;5.88;2.60;;;;;;;18.52;65.46;100925.69;10474972;28;20064;-77
2022/07/09 00:44:17;;;;;;;5.65;2.25;;;;;;;18.44;65.21;100927.34;10465646;28;20045;-75
2022/07/09 00:49:19;;;;;;;4.10;2.20;;;;;;;18.36;64.68;100922.59;10465031;28;20049;-76
2022/07/09 00:54:23;;;;;;;4.75;2.35;;;;;;;18.34;64.51;100917.34;10492584;28;20403;-83
2022/07/09 00:59:27;;;;;;;3.15;2.33;;;;;;;18.32;64.85;100919.66;10486646;28;20041;-81
2022/07/09 01:04:31;;;;;;;5.82;2.60;;;;;;;18.29;64.61;100916.72;10450947;28;20056;-82
2022/07/09 01:09:34;;;;;;;4.78;2.30;;;;;;;18.27;64.74;100911.47;10452146;28;20040;-82
2022/07/09 01:14:36;;;;;;;3.15;2.45;;;;;;;18.19;64.66;100901.16;10489021;28;20057;-82
2022/07/09 01:19:39;;;;;;;5.85;2.88;;;;;;;18.16;64.76;100904.59;10450894;28;20037;-83
2022/07/09 01:24:43;;;;;;;4.90;2.78;;;;;;;18.12;64.85;100902.81;10460926;28;20052;-84
2022/07/09 01:29:49;;;;;;;7.18;2.63;;;;;;;18.02;65.04;100901.97;10457558;28;20041;-74
2022/07/09 01:34:53;;;;;;;5.30;2.90;;;;;;;18.04;65.21;100907.19;10490581;28;20048;-74
2022/07/09 01:39:56;;;;;;;6.15;2.67;;;;;;;18.02;65.42;100898.38;10490469;28;20067;-75
2022/07/09 01:44:58;;;;;;;3.33;2.40;;;;;;;17.96;65.64;100896.91;10489175;28;20044;-74
2022/07/09 01:50:00;;;;;;;4.72;2.22;;;;;;;17.95;65.71;100896.09;10489439;28;20499;-74
2022/07/09 01:55:04;;;;;;;6.13;2.60;;;;;;;17.91;65.82;100897.88;10489854;28;20076;-75
2022/07/09 02:00:10;;;;;;;7.38;2.67;;;;;;;17.88;66.20;100898.53;10488139;28;20060;-75
2022/07/09 02:05:14;;;;;;;3.85;2.10;;;;;;;17.86;66.22;100895.25;10488034;28;20048;-75
2022/07/09 02:10:17;;;;;;;3.10;2.20;;;;;;;17.86;66.64;100889.69;10488016;28;20073;-74
2022/07/09 02:15:21;;;;;;;6.40;2.47;;;;;;;17.85;66.47;100888.06;10489715;28;20044;-74
2022/07/09 02:20:24;;;;;;;3.88;2.55;;;;;;;17.89;66.43;100877.16;10484837;28;20432;-74
2022/07/09 02:25:27;;;;;;;3.10;2.40;;;;;;;17.93;66.28;100878.13;10488718;28;20045;-74
2022/07/09 02:30:29;;;;;;;5.80;2.72;;;;;;;18.06;66.45;100871.63;10470536;28;20033;-74
2022/07/09 02:35:33;;;;;;;5.00;2.60;;;;;;;18.22;66.23;100870.00;10488505;28;20049;-74
2022/07/09 02:40:36;;;;;;;5.07;2.63;;;;;;;18.31;66.29;100865.22;10488144;28;20535;-75
2022/07/09 02:45:38;;;;;;;4.57;3.00;;;;;;;18.58;65.72;100877.16;10487640;28;20056;-75
2022/07/09 02:50:41;;;;;;;3.35;2.70;;;;;;;18.85;65.30;100873.19;10487851;28;20053;-75
2022/07/09 02:55:44;;;;;;;5.10;3.03;;;;;;;19.22;64.15;100868.81;10486897;28;20522;-75
2022/07/09 03:00:52;;;;;;;4.35;3.22;;;;;;;19.41;63.07;100868.38;10484002;28;20048;-75
2022/07/09 03:05:56;;;;;;;4.22;3.00;;;;;;;19.35;63.37;100862.19;10485072;28;20041;-75
2022/07/09 03:11:00;;;;;;;4.65;2.97;;;;;;;19.26;63.62;100859.47;10486290;28;20040;-75
2022/07/09 03:16:03;;;;;;;3.20;2.78;;;;;;;19.09;64.03;100850.34;10465432;28;20056;-74
2022/07/09 03:21:08;;;;;;;5.03;2.90;;;;;;;19.04;64.41;100845.00;10464572;28;20044;-74
2022/07/09 03:26:11;;;;;;;5.38;2.90;;;;;;;19.08;64.60;100845.94;10465869;28;20396;-74
2022/07/09 03:31:14;;;;;;;3.70;2.95;;;;;;;19.14;64.94;100844.63;10483745;28;20512;-74
2022/07/09 03:36:17;;;;;;;5.38;2.75;;;;;;;19.08;64.99;100837.59;10473669;28;20044;-74
2022/07/09 03:41:20;;;;;;;4.20;2.85;;;;;;;19.41;65.09;100833.03;10464861;28;20049;-74
2022/07/09 03:46:24;;;;;;;5.22;3.53;;;;;;;19.71;63.96;100830.25;10476570;28;20491;-74
2022/07/09 03:51:27;;;;;;;3.60;2.70;;;;;;;20.02;63.15;100818.72;10482202;28;20041;-74
2022/07/09 03:56:29;;;;;;;4.43;2.40;;;;;;;20.46;61.58;100825.56;10456718;28;20065;-74
2022/07/09 04:01:33;;;;;;;4.63;2.65;;;;;;;20.84;60.95;100821.72;10478668;28;20045;-74
2022/07/09 04:06:35;;;;;;;3.25;2.65;;;;;;;21.27;59.40;100816.44;10444868;28;20068;-74
2022/07/09 04:11:39;;;;;;;5.10;2.67;;;;;;;21.83;57.35;100815.78;10463486;28;20581;-74
2022/07/09 04:16:42;;;;;;;5.72;3.25;;;;;;;21.94;57.49;100816.91;10472606;28;20048;-74
2022/07/09 04:21:44;;;;;;;3.42;2.53;;;;;;;22.26;56.10;100823.47;10453766;28;20053;-74
2022/07/09 04:26:47;;;;;;;5.20;3.03;;;;;;;22.54;54.69;100815.88;10483232;28;20037;-74
2022/07/09 04:31:50;;;;;;;5.32;2.45;;;;;;;22.76;53.96;100814.50;10461935;28;20562;-74
2022/07/09 04:36:53;;;;;;;7.13;2.50;;;;;;;23.50;52.27;100811.13;10484379;28;20423;-74
2022/07/09 04:41:55;;;;;;;4.22;2.88;;;;;;;23.76;51.58;100809.38;10489065;28;20044;-74
2022/07/09 04:46:58;;;;;;;4.68;2.50;;;;;;;23.96;50.80;100796.22;10439801;28;20033;-74
2022/07/09 04:52:00;;;;;;;5.05;2.63;;;;;;;24.14;49.92;100795.78;10443059;28;20048;-74
2022/07/09 04:57:03;;;;;;;8.82;2.55;;;;;;;24.33;50.14;100793.78;10490896;28;20047;-74
2022/07/09 05:02:06;;;;;;;4.18;2.20;;;;;;;24.63;48.49;100787.53;10470240;28;20049;-74
2022/07/09 05:07:09;;;;;;;2.53;2.33;;;;;;;24.84;48.72;100776.69;10461318;28;20063;-74
2022/07/09 05:12:12;;;;;;;3.95;2.00;;;;;;;25.07;47.79;100773.09;10467951;28;20054;-74
2022/07/09 05:17:14;;;;;;;4.53;2.10;;;;;;;24.89;46.85;100784.78;10483307;28;20037;-74
2022/07/09 05:22:16;;;;;;;3.30;2.08;;;;;;;25.40;46.86;100767.59;10477410;28;20060;-75
2022/07/09 05:27:19;;;;;;;4.72;1.90;;;;;;;25.54;46.00;100767.81;10489462;28;20080;-74
2022/07/09 05:32:21;;;;;;;4.55;2.00;;;;;;;25.41;44.86;100769.22;10488215;28;20037;-74
2022/07/09 05:37:24;;;;;;;3.92;2.00;;;;;;;25.61;45.37;100769.09;10490001;28;20522;-74
2022/07/09 05:42:26;;;;;;;4.72;1.75;;;;;;;25.98;44.62;100757.94;10451793;28;20065;-75
2022/07/09 05:47:29;;;;;;;5.95;2.00;;;;;;;25.92;43.34;100751.88;10470184;28;20049;-74
2022/07/09 05:52:31;;;;;;;5.35;2.03;;;;;;;26.12;44.02;100752.50;10477567;28;20040;-74
2022/07/09 05:57:35;;;;;;;5.80;2.00;;;;;;;26.43;43.04;100751.28;10465550;28;20496;-74
2022/07/09 06:02:41;;;;;;;3.40;1.70;;;;;;;26.77;42.05;100748.38;10462492;28;20041;-74
2022/07/09 06:07:45;;;;;;;5.00;1.73;;;;;;;27.12;40.54;100750.72;10450158;28;20037;-75
2022/07/09 06:12:47;;;;;;;4.22;1.80;;;;;;;27.07;40.44;100757.50;10468565;28;20052;-75
2022/07/09 06:17:50;;;;;;;5.65;2.10;;;;;;;27.22;40.94;100735.88;10471615;28;20045;-75
2022/07/09 06:22:53;;;;;;;4.43;2.30;;;;;;;27.74;39.68;100736.59;10466335;28;20045;-75
2022/07/09 06:27:56;;;;;;;5.32;1.70;;;;;;;28.12;38.53;100735.16;10476583;28;20029;-75
2022/07/09 06:32:58;;;;;;;2.70;1.10;;;;;;;28.21;37.84;100725.09;10486125;28;20522;-74
2022/07/09 06:38:00;;;;;;;3.13;1.45;;;;;;;28.14;37.15;100724.28;10458135;28;20049;-74
2022/07/09 06:43:04;;;;;;;6.50;1.17;;;;;;;28.29;37.02;100709.03;10467500;28;20053;-74
2022/07/09 06:48:10;;;;;;;5.38;1.50;;;;;;;27.85;38.48;100704.44;10470675;28;20052;-75
2022/07/09 06:53:12;;;;;;;3.58;1.58;;;;;;;28.11;38.01;100708.13;10484827;28;20036;-74
2022/07/09 06:58:15;;;;;;;3.28;1.67;;;;;;;27.31;39.45;100717.44;10475428;28;20053;-74
2022/07/09 07:03:22;;;;;;;6.68;1.85;;;;;;;27.12;40.22;100698.00;10457075;28;20042;-74
2022/07/09 07:08:24;;;;;;;4.22;1.38;;;;;;;26.69;39.76;100702.44;10441819;28;20038;-74
2022/07/09 07:13:27;;;;;;;4.68;1.10;;;;;;;25.99;40.32;100695.69;10456808;28;20052;-74
2022/07/09 07:18:31;;;;;;;1.98;1.08;;;;;;;25.47;41.32;100682.59;10453937;28;20049;-74
2022/07/09 07:23:33;;;;;;;2.03;1.00;;;;;;;24.84;41.80;100686.06;10468756;28;20037;-73
2022/07/09 07:28:37;;;;;;;3.53;1.27;;;;;;;24.86;42.48;100669.66;10467648;28;20045;-73
2022/07/09 07:33:40;;;;;;;3.22;1.20;;;;;;;24.82;41.83;100675.22;10463388;28;20048;-73
2022/07/09 07:38:45;;;;;;;4.25;1.60;;;;;;;25.14;41.65;100670.09;10472978;28;20076;-73
2022/07/09 07:43:49;;;;;;;3.05;1.25;;;;;;;25.00;41.51;100669.91;10459514;28;20057;-73
2022/07/09 07:48:52;;;;;;;8.35;1.38;;;;;;;24.82;41.72;100655.56;10464489;28;20041;-73
2022/07/09 07:53:54;;;;;;;2.30;1.40;;;;;;;24.76;42.64;100657.06;10464606;28;20393;-72
2022/07/09 07:58:57;;;;;;;2.42;1.02;;;;;;;24.52;41.88;100654.66;10475060;28;20040;-73
2022/07/09 08:04:03;;;;;;;3.60;1.38;;;;;;;24.28;43.18;100656.63;10484687;28;20044;-73
2022/07/09 08:09:05;;;;;;;3.77;1.30;;;;;;;24.34;42.96;100652.38;10456810;28;20500;-73
2022/07/09 08:14:08;;;;;;;1.60;1.02;;;;;;;24.43;42.69;100640.06;10478476;28;20049;-73
2022/07/09 08:19:15;;;;;;;1.55;1.20;;;;;;;24.22;42.78;100640.50;10482003;28;20036;-73
2022/07/09 08:24:18;;;;;;;2.80;1.27;;;;;;;24.17;43.31;100644.44;10491035;28;20037;-73
2022/07/09 08:29:21;;;;;;;3.22;0.90;;;;;;;24.59;43.03;100633.13;10450098;28;20033;-74
2022/07/09 08:34:24;;;;;;;1.77;1.05;;;;;;;25.40;41.12;100626.31;10480565;28;20052;-75
2022/07/09 08:39:26;;;;;;;2.90;0.77;;;;;;;26.28;39.71;100632.13;10489530;28;20049;-75
2022/07/09 08:44:31;;;;;;;1.30;1.20;;;;;;;25.79;39.25;100621.19;10451959;28;20052;-74
2022/07/09 08:49:34;;;;;;;5.03;1.10;;;;;;;25.07;40.82;100611.03;10468012;28;20041;-73
2022/07/09 08:54:37;;;;;;;3.53;1.23;;;;;;;24.82;41.52;100613.47;10477526;28;20064;-73
2022/07/09 08:59:44;;;;;;;4.32;1.63;;;;;;;24.77;41.06;100610.97;10464029;28;20507;-74
2022/07/09 09:04:48;;;;;;;1.90;1.25;;;;;;;24.54;41.04;100602.59;10481234;28;20528;-74
2022/07/09 09:09:51;;;;;;;3.03;1.10;;;;;;;24.50;41.42;100595.31;10446359;28;20519;-74
2022/07/09 09:14:54;;;;;;;4.03;1.20;;;;;;;24.94;40.35;100592.75;10471440;28;20040;-74
2022/07/09 09:19:56;;;;;;;3.83;1.20;;;;;;;25.05;40.15;100587.34;10479082;28;20063;-74
2022/07/09 09:24:59;;;;;;;1.50;1.00;;;;;;;24.85;40.53;100573.41;10478280;28;20044;-77
2022/07/09 09:30:06;;;;;;;1.38;0.90;;;;;;;24.76;40.42;100581.28;10465763;28;20033;-74
2022/07/09 09:35:08;;;;;;;2.45;1.30;;;;;;;24.59;41.24;100571.41;10478026;28;20045;-74
2022/07/09 09:40:11;;;;;;;1.48;1.20;;;;;;;24.45;40.60;100567.56;10489008;28;20041;-74
2022/07/09 09:45:15;;;;;;;1.63;0.98;;;;;;;24.13;42.11;100573.47;10490079;28;20080;-74
2022/07/09 09:50:22;;;;;;;1.70;1.30;;;;;;;24.03;41.95;100565.66;10483889;28;20408;-74
2022/07/09 09:55:25;;;;;;;4.20;1.40;;;;;;;24.02;41.88;100558.44;10468013;28;20045;-74
2022/07/09 10:00:29;;;;;;;2.28;0.95;;;;;;;23.99;41.36;100565.63;10465395;28;20045;-73
2022/07/09 10:05:36;;;;;;;1.70;1.10;;;;;;;24.08;41.22;100545.72;10452364;28;20048;-73
2022/07/09 10:10:50;;;;;;;1.80;1.00;;;;;;;24.20;41.30;100545.53;10466380;28;20056;-73
2022/07/09 10:15:54;;;;;;;2.15;1.00;;;;;;;24.20;41.11;100541.91;10484346;28;20644;-74
2022/07/09 10:20:57;;;;;;;1.52;1.27;;;;;;;24.14;42.14;100535.03;10470090;28;20037;-73
2022/07/09 10:26:00;;;;;;;3.88;1.35;;;;;;;24.17;42.15;100532.28;10465616;28;20056;-73
2022/07/09 10:31:08;;;;;;;2.78;1.10;;;;;;;24.22;41.78;100534.75;10466705;28;20503;-75
2022/07/09 10:36:15;;;;;;;2.17;1.23;;;;;;;24.40;42.60;100532.25;10464361;28;20052;-76
2022/07/09 10:41:22;;;;;;;;;;;;;;;24.61;42.70;100528.94;10470805;28;20043;-76
2022/07/09 10:46:24;;;;;;;1.40;1.30;;;;;;;24.56;41.72;100516.06;10476029;28;19921;-76
2022/07/09 10:51:27;;;;;;;1.90;1.23;;;;;;;24.69;41.66;100518.66;10447146;28;20041;-76
2022/07/09 10:56:31;;;;;;;2.10;1.20;;;;;;;24.66;42.15;100511.81;10484628;28;20041;-73
2022/07/09 11:01:34;;;;;;;2.90;1.23;;;;;;;24.48;42.14;100502.31;10468259;28;20041;-75
2022/07/09 11:06:47;;;;;;;1.77;1.17;;;;;;;24.30;42.54;100490.84;10463401;28;20032;-75
2022/07/09 11:11:49;;;;;;;1.30;1.20;;;;;;;24.27;41.87;100492.34;10483510;28;20224;-76
2022/07/09 11:16:58;;;;;;;2.08;1.30;;;;;;;24.20;42.77;100505.47;10460534;28;20048;-76
2022/07/09 11:22:02;;;;;;;3.83;1.73;;;;;;;23.12;54.80;100549.50;10455899;28;20052;-76
2022/07/09 11:27:06;;;;;;;1.73;1.52;;;;;;;21.54;60.16;100543.25;10462802;28;20038;-75
2022/07/09 11:32:15;;;;;;;2.75;2.05;;;;;;;20.51;62.58;100548.56;10482305;28;20052;-76
2022/07/09 11:37:24;;;;;;;3.88;1.63;;;;;;;19.96;65.48;100525.69;10476595;28;20037;-76
2022/07/09 11:42:27;;;;;;;2.13;1.33;;;;;;;19.84;66.69;100522.88;10463617;28;20408;-75
2022/07/09 11:47:36;;;;;;;2.00;1.10;;;;;;;19.71;68.13;100515.66;10481426;28;20045;-77
2022/07/09 11:52:47;;;;;;;1.77;1.30;;;;;;;19.65;66.94;100503.13;10450189;28;20060;-77
2022/07/09 11:57:54;;;;;;;3.08;1.30;;;;;;;19.76;67.87;100488.38;10461387;28;20047;-76
2022/07/09 12:02:59;;;;;;;2.17;1.58;;;;;;;19.74;67.47;100495.47;10481320;28;20047;-78
2022/07/09 12:08:07;;;;;;;2.08;1.50;;;;;;;19.83;67.97;100490.63;10469058;28;20043;-77
2022/07/09 12:13:29;;;;;;;;;;;;;;;20.01;66.28;100488.41;10478349;28;20045;-77
2022/07/09 12:18:50;;;;;;;3.20;1.90;;;;;;;20.31;65.47;100480.63;10466008;28;19924;-75
2022/07/09 12:24:11;;;;;;;2.83;2.15;;;;;;;20.60;65.74;100477.56;10466089;28;20049;-76
2022/07/09 12:29:32;;;;;;;2.63;1.70;;;;;;;20.72;64.93;100474.75;10453643;28;20057;-78
2022/07/09 12:34:54;;;;;;;4.10;2.00;;;;;;;20.94;63.90;100476.16;10464930;28;20060;-77
2022/07/09 12:40:04;;;;;;;1.73;1.60;;;;;;;20.77;60.73;100466.13;10477610;28;20041;-75
2022/07/09 12:45:07;;;;;;;2.75;1.70;;;;;;;20.69;62.85;100449.53;10481428;28;20056;-74
2022/07/09 12:50:11;;;;;;;4.55;1.90;;;;;;;20.61;64.00;100459.66;10484724;28;20052;-74
2022/07/09 12:55:13;;;;;;;1.80;1.40;;;;;;;20.54;61.37;100448.31;10483242;28;20539;-74
2022/07/09 13:00:16;;;;;;;4.03;2.10;;;;;;;20.54;61.12;100453.06;10486152;28;20052;-74
2022/07/09 13:05:18;;;;;;;1.88;1.38;;;;;;;20.49;60.38;100459.72;10500646;28;20037;-74
2022/07/09 13:10:23;;;;;;;1.30;1.02;;;;;;;20.58;59.75;100452.00;10468130;28;20050;-74
2022/07/09 13:15:25;;;;;;;1.50;1.40;;;;;;;20.71;59.94;100450.81;10494017;28;20049;-74
2022/07/09 13:20:27;;;;;;;1.70;1.60;;;;;;;20.91;59.70;100439.81;10488068;28;20451;-74
2022/07/09 13:25:29;;;;;;;2.58;2.15;;;;;;;21.07;58.88;100432.28;10490277;28;20179;-75
2022/07/09 13:30:33;;;;;;;2.40;2.00;;;;;;;21.11;58.35;100457.50;10485498;28;20045;-75
2022/07/09 13:35:35;;;;;;;1.05;1.00;;;;;;;21.05;59.03;100454.16;10480692;28;20037;-75
2022/07/09 13:40:38;;;;;;;0.90;0.90;;;;;;;20.91;59.41;100460.13;10479738;28;20045;-76
2022/07/09 13:45:40;;;;;;;1.15;0.68;;;;;;;20.54;58.81;100470.63;10468820;28;20626;-76
2022/07/09 13:50:42;;;;;;;0.82;0.60;;;;;;;20.16;60.61;100468.22;10465063;28;20041;-76
2022/07/09 13:55:45;;;;;;;1.73;0.65;;;;;;;19.86;61.13;100484.34;10472050;28;20037;-76
2022/07/09 14:00:47;;;;;;;2.78;0.80;;;;;;;19.31;64.42;100477.28;10487807;28;20537;-76
2022/07/09 14:05:49;;;;;;;3.53;1.00;;;;;;;18.60;68.37;100456.00;10488417;28;20052;-76
2022/07/09 14:10:57;;;;;;;3.03;1.30;;;;;;;18.16;70.15;100459.41;10489294;28;20056;-76
2022/07/09 14:16:00;;;;;;;1.55;0.95;;;;;;;17.99;72.45;100443.66;10489364;28;20044;-76
2022/07/09 14:21:02;;;;;;;1.98;1.38;;;;;;;18.00;73.50;100460.00;10487803;28;20053;-76
2022/07/09 14:26:04;;;;;;;4.28;2.03;;;;;;;17.80;74.04;100446.88;10489667;28;20049;-76
2022/07/09 14:31:06;;;;;;;2.08;1.50;;;;;;;17.65;74.98;100434.34;10487700;28;20065;-76
2022/07/09 14:36:09;;;;;;;2.08;1.60;;;;;;;17.57;76.47;100423.31;10431230;28;20041;-76
2022/07/09 14:41:11;;;;;;;2.45;1.55;;;;;;;17.65;77.68;100439.09;10445557;28;20060;-76
2022/07/09 14:46:13;;;;;;;3.50;2.38;;;;;;;17.61;77.87;100441.72;10429018;28;20057;-76
2022/07/09 14:51:16;;;;;;;1.83;1.55;;;;;;;17.62;77.38;100440.56;10447938;28;20065;-76
2022/07/09 14:56:18;;;;;;;2.33;1.70;;;;;;;17.62;78.29;100448.88;10446844;28;20041;-76
2022/07/09 15:01:21;;;;;;;2.35;1.65;;;;;;;17.62;78.36;100435.03;10455606;28;20064;-76
2022/07/09 15:06:23;;;;;;;2.60;1.25;;;;;;;17.68;79.16;100439.25;10468986;28;20642;-76
2022/07/09 15:11:26;;;;;;;3.35;1.10;;;;;;;17.73;78.52;100447.41;10469377;28;20037;-76
2022/07/09 15:16:28;;;;;;;3.80;1.20;;;;;;;17.71;78.54;100443.34;10443497;28;20046;-76
2022/07/09 15:21:31;;;;;;;1.50;1.13;;;;;;;17.57;78.41;100438.00;10480658;28;20049;-76
2022/07/09 15:26:34;;;;;;;2.10;1.30;;;;;;;17.49;78.30;100424.94;10427472;28;20040;-76
2022/07/09 15:31:36;;;;;;;3.63;1.83;;;;;;;17.56;79.04;100425.25;10427541;28;20045;-76
2022/07/09 15:36:39;;;;;;;2.45;1.45;;;;;;;17.74;78.55;100421.28;10411363;28;20095;-75
2022/07/09 15:41:41;;;;;;;2.63;1.60;;;;;;;17.88;77.88;100411.91;10452498;28;20440;-76
2022/07/09 15:46:44;;;;;;;2.20;1.48;;;;;;;17.99;76.70;100424.25;10444160;28;20511;-76
2022/07/09 15:51:47;;;;;;;4.40;2.13;;;;;;;18.02;75.35;100418.81;10444254;28;20045;-76
2022/07/09 15:56:50;;;;;;;3.83;2.33;;;;;;;18.20;75.27;100432.59;10427799;28;20403;-76
2022/07/09 16:01:52;;;;;;;3.03;1.83;;;;;;;18.36;76.00;100436.41;10444736;28;20040;-76
2022/07/09 16:06:55;;;;;;;2.30;1.42;;;;;;;18.43;75.43;100442.25;10427141;28;20060;-76
2022/07/09 16:17:20;;;;;;;4.55;3.25;;;;;;;18.54;74.96;100451.78;10444352;28;20049;-76
2022/07/09 16:22:22;;;;;;;4.50;3.05;;;;;;;18.61;75.27;100451.25;10444152;28;20048;-76
2022/07/09 16:27:25;;;;;;;4.22;2.67;;;;;;;18.67;76.06;100453.50;10426502;28;20515;-76
2022/07/09 16:32:27;;;;;;;3.65;2.60;;;;;;;18.70;75.55;100471.47;10427502;28;20041;-76
2022/07/09 16:37:32;;;;;;;2.47;1.83;;;;;;;18.74;76.04;100463.25;10452838;28;20068;-75
2022/07/09 16:42:34;;;;;;;2.22;2.03;;;;;;;18.73;75.42;100454.09;10434531;28;20053;-76
2022/07/09 16:47:37;;;;;;;2.10;1.90;;;;;;;18.70;75.85;100449.22;10434388;28;20037;-76
2022/07/09 16:52:39;;;;;;;3.70;2.00;;;;;;;18.72;75.99;100437.78;10451412;28;20048;-76
2022/07/09 16:57:42;;;;;;;3.40;1.70;;;;;;;18.74;75.48;100429.91;10449364;28;20524;-76
2022/07/09 17:02:44;;;;;;;2.50;1.42;;;;;;;18.80;75.58;100423.00;10450776;28;20053;-76
2022/07/09 17:07:47;;;;;;;2.50;1.50;;;;;;;18.80;74.97;100429.38;10433384;28;20046;-76
2022/07/09 17:12:49;;;;;;;1.45;1.25;;;;;;;18.80;74.13;100415.47;10478783;28;20033;-76
2022/07/09 17:17:51;;;;;;;2.83;1.40;;;;;;;18.77;73.45;100413.38;10485749;28;20037;-76
2022/07/09 17:22:54;;;;;;;1.40;1.27;;;;;;;18.76;73.47;100411.75;10491812;28;20048;-76
2022/07/09 17:27:56;;;;;;;3.75;1.23;;;;;;;18.73;73.41;100419.94;10473641;28;20041;-76
2022/07/09 17:32:58;;;;;;;1.63;1.25;;;;;;;18.72;73.20;100421.09;10448489;28;20060;-84
2022/07/09 17:38:00;;;;;;;3.38;1.60;;;;;;;18.72;73.79;100424.69;10461662;28;20052;-82
2022/07/09 17:43:03;;;;;;;1.52;1.40;;;;;;;18.75;73.37;100426.00;10437553;28;20045;-77
2022/07/09 17:48:06;;;;;;;1.35;1.20;;;;;;;18.72;73.27;100433.03;10486045;28;20052;-77
2022/07/09 17:53:08;;;;;;;3.47;1.88;;;;;;;18.67;72.74;100436.81;10486063;28;20060;-77
2022/07/09 17:58:11;;;;;;;1.23;1.13;;;;;;;18.64;71.99;100433.91;10469702;28;20071;-82
2022/07/09 18:03:13;;;;;;;2.58;1.90;;;;;;;18.61;72.21;100438.16;10469786;28;20033;-77
2022/07/09 18:08:15;;;;;;;1.75;1.20;;;;;;;18.57;72.05;100431.66;10484759;28;20040;-75
2022/07/09 18:13:18;;;;;;;1.65;1.35;;;;;;;18.54;71.62;100439.84;10487787;28;20526;-74
2022/07/09 18:18:20;;;;;;;1.92;1.30;;;;;;;18.55;71.68;100420.06;10487849;28;20051;-75
2022/07/09 18:23:23;;;;;;;2.45;1.55;;;;;;;18.57;71.72;100425.28;10459517;28;20045;-76
2022/07/09 18:28:25;;;;;;;1.67;1.38;;;;;;;18.51;71.62;100421.09;10487620;28;20036;-75
2022/07/09 18:33:27;;;;;;;1.52;1.30;;;;;;;18.53;72.09;100416.81;10451265;28;20543;-75
2022/07/09 18:38:30;;;;;;;3.30;1.58;;;;;;;18.51;72.06;100419.13;10487780;28;20051;-75
2022/07/09 18:43:32;;;;;;;2.28;1.48;;;;;;;18.54;71.72;100420.41;10468634;28;20053;-77
2022/07/09 18:48:34;;;;;;;2.33;1.50;;;;;;;18.50;72.19;100409.16;10486849;28;20050;-79
2022/07/09 18:53:37;;;;;;;1.42;1.20;;;;;;;18.49;72.49;100409.50;10463795;28;20049;-77
2022/07/09 18:58:39;;;;;;;2.65;1.55;;;;;;;18.48;72.88;100414.25;10488884;28;20041;-75
2022/07/09 19:03:41;;;;;;;2.80;1.60;;;;;;;18.52;72.76;100414.38;10487476;28;20048;-77
2022/07/09 19:08:44;;;;;;;1.80;1.38;;;;;;;18.53;73.03;100411.25;10466089;28;20040;-77
2022/07/09 19:13:47;;;;;;;2.72;1.95;;;;;;;18.44;72.86;100399.41;10510773;28;20047;-77
2022/07/09 19:18:49;;;;;;;3.30;1.92;;;;;;;18.37;73.25;100410.25;10463575;28;20044;-78
2022/07/09 19:23:51;;;;;;;1.95;1.70;;;;;;;18.34;73.57;100400.63;10445742;28;20052;-78
2022/07/09 19:28:53;;;;;;;3.38;1.48;;;;;;;18.30;73.88;100410.78;10445482;28;20053;-78
2022/07/09 19:33:59;;;;;;;1.75;1.65;;;;;;;18.28;74.04;100417.84;10445050;28;20042;-78
2022/07/09 19:39:03;;;;;;;2.75;2.00;;;;;;;18.29;74.22;100428.63;10449492;28;20052;-77
2022/07/09 19:44:07;;;;;;;2.67;1.98;;;;;;;18.29;74.56;100425.84;10442487;28;20052;-78
2022/07/09 19:49:12;;;;;;;2.00;1.80;;;;;;;18.28;74.80;100418.66;10410455;28;20049;-78
2022/07/09 19:54:14;;;;;;;2.75;2.42;;;;;;;18.26;75.13;100420.97;10444870;28;20057;-78
2022/07/09 19:59:20;;;;;;;4.35;2.28;;;;;;;18.25;75.75;100427.66;10426926;28;20507;-77
2022/07/09 20:04:22;;;;;;;3.72;2.72;;;;;;;18.18;75.55;100423.78;10426677;28;20527;-77
2022/07/09 20:09:24;;;;;;;3.03;2.67;;;;;;;18.08;76.82;100423.03;10483906;28;20044;-77
2022/07/09 20:14:26;;;;;;;4.25;3.20;;;;;;;18.01;77.17;100416.38;10489651;28;20045;-80
2022/07/09 20:19:29;;;;;;;4.95;3.10;;;;;;;17.85;77.99;100420.88;10493479;28;20045;-75
2022/07/09 20:24:31;;;;;;;5.35;2.80;;;;;;;17.77;78.58;100415.06;10492895;28;20049;-79
2022/07/09 20:29:34;;;;;;;6.22;2.83;;;;;;;17.72;78.45;100412.50;10484356;28;20790;-87
2022/07/09 20:34:36;;;;;;;3.80;2.67;;;;;;;17.65;79.27;100409.38;10469875;28;20047;-76
2022/07/09 20:39:38;;;;;;;4.05;2.75;;;;;;;17.72;79.81;100415.25;10470869;28;20049;-78
2022/07/09 20:44:41;;;;;;;3.38;2.80;;;;;;;17.69;79.78;100404.00;10492053;28;20052;-81
2022/07/09 20:49:43;;;;;;;4.72;2.85;;;;;;;17.71;80.14;100410.03;10476295;28;20038;-77
2022/07/09 20:54:45;;;;;;;4.97;2.65;;;;;;;17.70;80.43;100408.38;10491107;28;20044;-78
2022/07/09 20:59:48;;;;;;;3.72;3.17;;;;;;;17.73;80.30;100414.13;10489938;28;20040;-79
2022/07/09 21:04:50;;;;;;;3.22;2.88;;;;;;;17.69;80.35;100421.44;10491524;28;20056;-80
2022/07/09 21:09:53;;;;;;;7.03;3.33;;;;;;;17.72;79.96;100412.50;10490443;28;20041;-80
2022/07/09 21:14:55;;;;;;;5.57;3.13;;;;;;;17.69;80.57;100406.75;10461481;28;20071;-77
2022/07/09 21:19:58;;;;;;;4.60;3.22;;;;;;;17.70;80.90;100420.34;10481776;28;20037;-78
2022/07/09 21:25:00;;;;;;;8.05;3.50;;;;;;;17.65;80.65;100422.44;10454445;28;20052;-77
2022/07/09 21:30:03;;;;;;;5.78;3.58;;;;;;;17.53;81.11;100422.31;10468363;28;20053;-77
2022/07/09 21:35:06;;;;;;;5.07;3.35;;;;;;;17.43;81.34;100424.31;10489412;28;20445;-75
2022/07/09 21:40:09;;;;;;;7.65;3.40;;;;;;;17.40;81.51;100421.41;10488667;28;20503;-75
2022/07/09 21:45:11;;;;;;;4.47;3.50;;;;;;;17.39;81.87;100420.59;10469214;28;20045;-75
2022/07/09 21:50:14;;;;;;;4.90;3.53;;;;;;;17.35;81.80;100416.03;10484884;28;20040;-74
2022/07/09 21:55:16;;;;;;;5.13;3.45;;;;;;;17.33;81.93;100427.44;10485803;28;20032;-74
2022/07/09 22:00:23;;;;;;;6.22;3.40;;;;;;;17.24;81.91;100421.13;10483145;28;20049;-74
2022/07/09 22:05:25;;;;;;;;;;;;;;;17.16;81.81;100428.31;10483755;28;20037;-73
2022/07/09 22:10:27;;;;;;;5.65;3.47;;;;;;;17.12;82.03;100435.69;10481530;28;19921;-74
2022/07/09 22:15:30;;;;;;;5.43;3.20;;;;;;;17.12;81.96;100430.13;10469712;28;20038;-74
2022/07/09 22:20:32;;;;;;;5.18;3.53;;;;;;;17.13;81.91;100433.72;10441935;28;20059;-73
2022/07/09 22:25:35;;;;;;;5.47;3.85;;;;;;;17.13;81.94;100423.44;10480612;28;20052;-74
2022/07/09 22:30:37;;;;;;;9.13;3.65;;;;;;;17.14;81.27;100421.47;10469532;28;20038;-73
2022/07/09 22:35:39;;;;;;;5.55;3.67;;;;;;;17.13;81.19;100417.91;10464944;28;20040;-73
2022/07/09 22:40:42;;;;;;;7.57;3.85;;;;;;;17.05;81.25;100421.53;10472681;28;20053;-75
2022/07/09 22:45:44;;;;;;;7.53;3.97;;;;;;;17.04;81.13;100410.75;10459672;28;20049;-74
2022/07/09 22:50:46;;;;;;;6.63;4.00;;;;;;;17.07;81.10;100416.44;10465856;28;20040;-73
2022/07/09 22:55:49;;;;;;;7.25;3.72;;;;;;;17.07;81.33;100412.88;10469632;28;20045;-73
2022/07/09 23:00:51;;;;;;;6.45;3.72;;;;;;;17.09;80.69;100411.38;10481231;28;20455;-73
2022/07/09 23:05:53;;;;;;;6.53;3.83;;;;;;;17.16;80.90;100410.88;10469933;28;20044;-73
2022/07/09 23:10:55;;;;;;;4.90;3.63;;;;;;;17.19;80.61;100415.78;10486985;28;20037;-73
2022/07/09 23:15:58;;;;;;;6.75;3.92;;;;;;;17.18;80.79;100414.13;10487416;28;20049;-73
2022/07/09 23:21:00;;;;;;;6.57;3.92;;;;;;;17.18;80.68;100423.28;10485522;28;20435;-73